Terminal Aerodrome Forecast
Issued by NWS

Home | Current Version | Previous Version | Text Only | Print | Product List | Glossary On
Versions: 1 2 3 4 5 6 7 8 9 10 11 12 13 14 15 16 17 18 19 20 21 22 23
000
FTUS43 KDVN 282322
TAFCID
TAF
KCID 282322Z 2900/2924 11008KT P6SM SCT015 OVC040
      TEMPO 2901/2903 6SM -SHRA BR BKN020
     FM290300 VRB03KT 5SM BR BKN040
      TEMPO 2908/2912 3SM BR BKN015
     FM291500 33008KT P6SM BKN035 PROB30 2921/2924 -TSRA BKN040CB=

USA.gov is the U.S. government's official web portal to all federal, state and local government web resources and services.